Latest Weather Observations for Parndana

IDS60801

Issued at 8:01 pm CST Thursday 26 May 2016 (issued every 30 minutes, with the page automatically refreshed every 10 minutes)

About weather observations | Map of weather stations | Latest weather observations for SA | Other Formats
Station Details ID: 022843 Name: PARNDANA CFS AWS Lat: -35.79 Lon: 137.25 Height: 165.0 m
Data from the previous 72 hours. | See also: Recent months at Parndana
Date/Time
CST
Temp
°C
App
Temp
°C
Dew
Point
Rel
Hum
%
Delta-T
°C
Wind Press
QNH
hPa
Press
MSL
hPa
Rain
since 9 am
mm
Dir
 
Spd
km/h
Gust
km/h
Spd
kts
Gust
kts
26/08:00pm 8.5 6.2 7.4 93 0.5 WNW 9 11 5 6 - - 0.0
26/07:30pm 8.9 7.0 7.5 91 0.7 W 7 9 4 5 - - 0.0
26/07:00pm 9.4 7.2 7.7 89 0.8 WNW 9 9 5 5 - - 0.0
26/06:30pm 10.2 9.5 8.6 90 0.8 W 2 4 1 2 - - 0.0
26/06:00pm 10.2 8.7 8.3 88 0.9 W 6 7 3 4 - - 0.0
26/05:30pm 10.7 8.7 8.5 86 1.1 W 9 9 5 5 - - 0.0
26/05:00pm 12.2 10.3 9.2 82 1.5 W 9 11 5 6 - - 0.0
26/04:30pm 13.0 11.2 9.6 80 1.7 W 9 11 5 6 - - 0.0
26/04:00pm 14.0 11.3 9.0 72 2.6 W 13 17 7 9 - - 0.0
26/03:30pm 13.9 9.5 9.1 73 2.5 W 22 30 12 16 - - 0.0
26/03:00pm 15.1 12.2 9.7 70 2.8 WNW 15 22 8 12 - - 0.0
26/02:30pm 13.5 10.5 9.2 75 2.2 W 15 19 8 10 - - 0.0
26/02:00pm 15.0 12.0 9.4 69 2.9 W 15 19 8 10 - - 0.0
26/01:30pm 14.0 9.7 8.0 67 3.0 W 20 28 11 15 - - 0.0
26/01:00pm 15.3 11.8 8.8 65 3.3 W 17 22 9 12 - - 0.0
26/12:30pm 15.1 11.5 9.7 70 2.8 WSW 19 26 10 14 - - 0.0
26/12:00pm 14.6 10.5 8.8 68 3.0 WSW 20 26 11 14 - - 0.0
26/11:30am 14.8 11.1 9.6 71 2.7 WSW 19 22 10 12 - - 0.0
26/11:00am 14.4 10.6 9.2 71 2.7 WSW 19 26 10 14 - - 0.0
26/10:30am 14.1 10.6 10.1 77 2.1 WSW 19 24 10 13 - - 0.0
26/10:00am 13.5 10.5 9.2 75 2.2 SW 15 20 8 11 - - 0.0
26/09:30am 12.7 10.0 8.8 77 2.0 WSW 13 17 7 9 - - 0.0
26/09:00am 11.8 9.5 9.0 83 1.4 WSW 11 15 6 8 - - 0.0
26/08:30am 10.3 8.0 8.9 91 0.7 W 11 13 6 7 - - 0.0
26/08:00am 8.3 5.6 7.4 94 0.4 W 11 11 6 6 - - 0.0
26/07:30am 8.8 6.1 7.4 91 0.7 WSW 11 13 6 7 - - 0.0
26/07:00am 9.1 6.5 7.7 91 0.7 WSW 11 15 6 8 - - 0.0
26/06:30am 9.0 6.5 8.2 95 0.4 W 11 13 6 7 - - 0.0
26/06:00am 8.1 5.4 7.5 96 0.3 W 11 13 6 7 - - 0.0
26/05:30am 7.9 5.1 7.1 95 0.4 W 11 13 6 7 - - 0.0
26/05:00am 7.7 5.3 7.0 95 0.3 WSW 9 11 5 6 - - 0.0
26/04:30am 8.3 6.3 7.1 92 0.6 WSW 7 9 4 5 - - 0.0
26/04:00am 10.3 7.7 9.2 93 0.6 SSW 13 19 7 10 - - 0.0
26/03:30am 10.7 8.1 9.3 91 0.7 WSW 13 15 7 8 - - 0.0
26/03:00am 10.6 8.6 10.0 96 0.3 WSW 11 15 6 8 - - 0.0
26/02:30am 10.1 8.7 9.5 96 0.3 WSW 7 9 4 5 - - 0.0
26/02:00am 10.4 8.7 9.8 96 0.3 SW 9 11 5 6 - - 0.0
26/01:30am 10.8 8.8 10.2 96 0.3 SW 11 13 6 7 - - 0.0
26/01:00am 10.3 8.6 9.7 96 0.3 WSW 9 9 5 5 - - 0.0
26/12:30am 10.4 9.3 9.8 96 0.3 W 6 6 3 3 - - 0.0
26/12:00am 10.6 9.5 10.0 96 0.3 WSW 6 7 3 4 - - 0.0
 
Date/Time
CST
Temp
°C
App
Temp
°C
Dew
Point
Rel
Hum
%
Delta-T
°C
Wind Press
QNH
hPa
Press
MSL
hPa
Rain
since 9 am
mm
Dir
 
Spd
km/h
Gust
km/h
Spd
kts
Gust
kts
25/11:30pm 10.6 9.5 10.0 96 0.3 SW 6 7 3 4 - - 0.0
25/11:00pm 10.5 9.2 10.0 97 0.3 WSW 7 9 4 5 - - 0.0
25/10:30pm 10.8 9.2 10.3 97 0.3 WSW 9 13 5 7 - - 0.0
25/10:00pm 10.8 9.3 10.5 98 0.2 WSW 9 11 5 6 - - 0.0
25/09:30pm 9.6 7.7 9.1 97 0.2 SW 9 11 5 6 - - 0.0
25/09:00pm 9.6 7.7 9.1 97 0.2 SW 9 11 5 6 - - 0.0
25/08:30pm 10.1 8.9 9.6 97 0.3 WNW 6 7 3 4 - - 0.0
25/08:00pm 10.3 9.2 9.8 97 0.3 WSW 6 6 3 3 - - 0.0
25/07:30pm 10.6 9.3 10.0 96 0.3 S 7 9 4 5 - - 0.0
25/07:00pm 11.4 10.5 10.8 96 0.3 S 6 9 3 5 - - 0.0
25/06:30pm 11.8 10.5 11.2 96 0.3 S 9 11 5 6 - - 0.0
25/06:00pm 11.8 11.0 11.2 96 0.3 S 6 7 3 4 - - 0.0
25/05:30pm 12.3 11.1 11.5 95 0.4 SSW 9 13 5 7 - - 0.0
25/05:00pm 12.8 11.0 12.0 95 0.4 SW 13 17 7 9 - - 0.0
25/04:30pm 12.9 11.1 12.0 94 0.5 S 13 17 7 9 - - 0.0
25/04:00pm 13.2 10.4 12.6 96 0.3 SSW 19 26 10 14 - - 0.0
25/03:30pm 12.9 10.4 12.4 97 0.3 SW 17 24 9 13 - - 0.0
25/03:00pm 13.9 11.3 13.3 96 0.3 WNW 19 24 10 13 - - 0.0
25/02:30pm 13.9 10.4 13.3 96 0.3 NNW 24 33 13 18 - - 0.0
25/02:00pm 14.0 10.9 13.4 96 0.3 NNW 22 28 12 15 - - 0.0
25/01:30pm 14.2 11.7 13.4 95 0.4 NNW 19 24 10 13 - - 0.0
25/01:00pm 14.1 10.9 13.1 94 0.6 NNW 22 32 12 17 - - 0.0
25/12:30pm 14.0 11.4 13.1 94 0.5 NNW 19 30 10 16 - - 0.0
25/12:00pm 14.0 11.1 12.9 93 0.6 NNW 20 30 11 16 - - 0.0
25/11:30am 13.9 10.2 12.8 93 0.6 NNW 24 33 13 18 - - 0.0
25/11:00am 13.7 10.0 12.8 94 0.5 NNW 24 37 13 20 - - 0.0
25/10:30am 13.7 9.6 12.8 94 0.5 NNW 26 37 14 20 - - 0.0
25/10:00am 13.6 9.8 12.3 92 0.7 NNW 24 35 13 19 - - 0.0
25/09:30am 13.3 9.3 11.7 90 0.9 N 24 35 13 19 - - 0.0
25/09:00am 13.6 9.8 11.1 85 1.3 N 22 35 12 19 - - 0.0
25/08:30am 13.5 9.2 10.7 83 1.5 NNW 24 32 13 17 - - 0.0
25/08:00am 13.0 8.2 10.4 84 1.4 N 26 37 14 20 - - 0.0
25/07:30am 12.7 9.3 10.6 87 1.1 NNW 19 28 10 15 - - 0.0
25/07:00am 12.8 8.7 11.5 92 0.7 NNW 24 35 13 19 - - 0.0
25/06:30am 13.0 10.7 11.6 91 0.7 N 15 20 8 11 - - 0.0
25/06:00am 12.8 10.0 11.2 90 0.8 N 17 22 9 12 - - 0.0
25/05:30am 13.1 9.7 10.6 85 1.3 NNW 19 24 10 13 - - 0.0
25/05:00am 13.4 9.7 10.2 81 1.7 N 20 30 11 16 - - 0.0
25/04:30am 13.8 10.1 10.2 79 1.9 NNW 20 28 11 15 - - 0.0
25/04:00am 13.2 10.1 10.2 82 1.6 N 17 24 9 13 - - 0.0
25/03:30am 12.9 9.4 10.3 84 1.4 NNW 19 24 10 13 - - 0.0
25/03:00am 12.9 8.3 9.5 80 1.7 N 24 32 13 17 - - 0.0
25/02:30am 12.9 9.4 10.1 83 1.5 N 19 24 10 13 - - 0.0
25/02:00am 13.0 7.7 10.0 82 1.6 N 28 41 15 22 - - 0.0
25/01:30am 13.8 7.7 9.6 76 2.2 NNW 32 50 17 27 - - 0.0
25/01:22am 14.4 8.1 9.0 70 2.8 NNW 32 50 17 27 - - 0.0
25/01:00am 15.4 9.8 8.6 64 3.5 NNW 28 39 15 21 - - 0.0
25/12:30am 15.2 10.2 9.6 69 2.9 NNW 26 39 14 21 - - 0.0
25/12:00am 15.2 11.4 9.8 70 2.8 N 20 33 11 18 - - 0.0
 
Date/Time
CST
Temp
°C
App
Temp
°C
Dew
Point
Rel
Hum
%
Delta-T
°C
Wind Press
QNH
hPa
Press
MSL
hPa
Rain
since 9 am
mm
Dir
 
Spd
km/h
Gust
km/h
Spd
kts
Gust
kts
24/11:30pm 15.0 11.1 9.6 70 2.8 N 20 30 11 16 - - 0.0
24/11:00pm 14.2 10.4 9.2 72 2.6 N 19 24 10 13 - - 0.0
24/10:30pm 13.9 10.6 7.9 67 3.0 N 15 19 8 10 - - 0.0
24/10:00pm 14.3 10.3 6.6 60 3.8 N 17 22 9 12 - - 0.0
24/09:30pm 14.7 10.1 6.5 58 4.0 N 20 30 11 16 - - 0.0
24/09:00pm 14.7 10.5 5.5 54 4.4 N 17 24 9 13 - - 0.0
24/08:30pm 14.6 10.5 6.2 57 4.1 N 17 24 9 13 - - 0.0
24/08:00pm 13.9 10.4 7.0 63 3.4 N 15 20 8 11 - - 0.0
24/07:30pm 13.5 10.3 6.8 64 3.3 NNE 13 17 7 9 - - 0.0
24/07:00pm 13.1 10.0 7.3 68 2.8 N 13 17 7 9 - - 0.0
24/06:30pm 12.6 10.1 8.3 75 2.1 N 11 15 6 8 - - 0.0
24/06:00pm 13.1 10.3 8.6 74 2.3 N 13 15 7 8 - - 0.0
24/05:30pm 13.3 10.5 8.4 72 2.5 N 13 17 7 9 - - 0.0
24/05:00pm 14.2 10.9 8.2 67 3.0 N 15 22 8 12 - - 0.0
24/04:30pm 15.1 11.1 8.1 63 3.5 N 19 24 10 13 - - 0.0
24/04:00pm 16.1 11.7 8.8 62 3.8 N 22 33 12 18 - - 0.0
24/03:30pm 16.6 12.8 9.8 64 3.6 N 20 32 11 17 - - 0.0
24/03:00pm 17.0 12.8 9.9 63 3.8 N 22 32 12 17 - - 0.0
24/02:30pm 17.2 13.3 10.8 66 3.5 N 22 35 12 19 - - 0.0
24/02:00pm 17.2 13.7 11.0 67 3.4 N 20 28 11 15 - - 0.0
24/01:30pm 16.9 13.2 11.6 71 2.9 N 22 37 12 20 - - 0.0
24/01:00pm 16.8 13.0 12.3 75 2.5 N 24 32 13 17 - - 0.0
24/12:30pm 16.5 12.2 11.9 74 2.5 NNW 26 35 14 19 - - 0.0
24/12:00pm 17.1 13.4 12.8 76 2.4 NNW 24 32 13 17 - - 0.0
24/11:30am 15.7 13.0 12.8 83 1.6 N 19 24 10 13 - - 0.0
24/11:00am 15.6 11.0 12.4 81 1.8 N 28 37 15 20 - - 0.0
24/10:30am 15.8 12.7 13.3 85 1.4 N 22 33 12 18 - - 0.0
24/10:00am 15.1 12.2 12.8 86 1.3 N 20 28 11 15 - - 0.0
24/09:30am 14.5 12.3 13.2 92 0.7 N 17 22 9 12 - - 0.0
24/09:00am 13.3 12.4 12.7 96 0.3 N 9 11 5 6 - - 0.0
24/08:30am 11.9 11.0 11.4 97 0.3 NNE 7 7 4 4 - - 0.0
24/08:00am 11.0 9.5 10.5 97 0.3 N 9 11 5 6 - - 0.0
24/07:30am 10.9 9.7 10.3 96 0.3 N 7 7 4 4 - - 0.0
24/07:00am 11.5 10.5 11.0 97 0.3 N 7 11 4 6 - - 0.0
24/06:30am 11.5 10.7 11.0 97 0.3 N 6 7 3 4 - - 0.0
24/06:00am 11.0 9.1 10.5 97 0.3 N 11 11 6 6 - - 0.0
24/05:30am 9.9 8.5 9.4 97 0.3 N 7 9 4 5 - - 0.0
24/05:00am 9.9 8.1 9.4 97 0.3 N 9 11 5 6 - - 0.0
24/04:30am 10.5 8.8 10.0 97 0.3 N 9 11 5 6 - - 0.0
24/04:00am 10.5 8.8 10.0 97 0.3 N 9 9 5 5 - - 0.0
24/03:30am 10.2 8.5 9.7 97 0.3 N 9 9 5 5 - - 0.0
24/03:00am 9.8 8.3 9.3 97 0.3 NNE 7 9 4 5 - - 0.0
24/02:30am 9.4 8.4 8.9 97 0.2 NNW 4 6 2 3 - - 0.0
24/02:00am 10.0 8.6 9.4 96 0.3 NNW 7 7 4 4 - - 0.0
24/01:30am 9.2 7.1 8.4 95 0.4 NNW 9 11 5 6 - - 0.0
24/01:00am 10.3 9.1 9.5 95 0.4 NW 6 6 3 3 - - 0.0
24/12:30am 10.5 9.8 9.9 96 0.3 W 4 4 2 2 - - 0.0
24/12:00am 9.2 7.5 8.3 94 0.4 WSW 7 9 4 5 - - 0.0
 
Date/Time
CST
Temp
°C
App
Temp
°C
Dew
Point
Rel
Hum
%
Delta-T
°C
Wind Press
QNH
hPa
Press
MSL
hPa
Rain
since 9 am
mm
Dir
 
Spd
km/h
Gust
km/h
Spd
kts
Gust
kts
23/11:30pm 10.6 9.2 9.7 94 0.5 WNW 7 7 4 4 - - 0.0
23/11:00pm 10.4 8.6 9.5 94 0.5 NW 9 11 5 6 - - 0.0
23/10:30pm 10.0 7.7 9.1 94 0.4 NW 11 13 6 7 - - 0.0
23/10:00pm 9.6 7.2 8.5 93 0.5 NW 11 13 6 7 - - 0.0
23/09:30pm 10.4 8.5 9.2 92 0.6 NNW 9 11 5 6 - - 0.0
23/09:00pm 10.1 7.8 8.9 92 0.6 NNW 11 13 6 7 - - 0.0
23/08:30pm 10.0 7.3 8.9 93 0.5 NW 13 15 7 8 - - 0.0

Other Formats:

Comma delimited format used in spreadsheet applications
http://www.bom.gov.au/fwo/IDS60801/IDS60801.94807.axf

JavaScript Object Notation format (JSON) in row-major order
http://www.bom.gov.au/fwo/IDS60801/IDS60801.94807.json